sensor_id;sensor_type;location;lat;lon;timestamp;temperature;humidity
41437;DHT22;27178;49.460;10.850;2023-07-29T00:01:12;22.40;91.00
41437;DHT22;27178;49.460;10.850;2023-07-29T00:03:39;22.20;90.80
41437;DHT22;27178;49.460;10.850;2023-07-29T00:06:09;22.80;91.00
41437;DHT22;27178;49.460;10.850;2023-07-29T00:08:38;22.20;90.80
41437;DHT22;27178;49.460;10.850;2023-07-29T00:11:06;22.80;91.00
41437;DHT22;27178;49.460;10.850;2023-07-29T00:13:34;22.20;90.90
41437;DHT22;27178;49.460;10.850;2023-07-29T00:16:02;23.30;91.30
41437;DHT22;27178;49.460;10.850;2023-07-29T00:18:31;22.10;91.00
41437;DHT22;27178;49.460;10.850;2023-07-29T00:21:00;22.70;91.50
41437;DHT22;27178;49.460;10.850;2023-07-29T00:23:28;22.40;91.00
41437;DHT22;27178;49.460;10.850;2023-07-29T00:25:57;22.40;91.20
41437;DHT22;27178;49.460;10.850;2023-07-29T00:28:26;22.10;91.00
41437;DHT22;27178;49.460;10.850;2023-07-29T00:30:54;22.80;91.30
41437;DHT22;27178;49.460;10.850;2023-07-29T00:33:23;23.40;91.40
41437;DHT22;27178;49.460;10.850;2023-07-29T00:35:52;22.10;91.00
41437;DHT22;27178;49.460;10.850;2023-07-29T00:38:20;22.80;91.00
41437;DHT22;27178;49.460;10.850;2023-07-29T00:40:48;22.30;90.90
41437;DHT22;27178;49.460;10.850;2023-07-29T00:43:17;22.10;90.90
41437;DHT22;27178;49.460;10.850;2023-07-29T00:45:45;22.10;90.90
41437;DHT22;27178;49.460;10.850;2023-07-29T00:48:14;22.00;91.00
41437;DHT22;27178;49.460;10.850;2023-07-29T00:50:42;22.70;91.20
41437;DHT22;27178;49.460;10.850;2023-07-29T00:53:12;22.00;91.10
41437;DHT22;27178;49.460;10.850;2023-07-29T00:55:41;22.00;91.10
41437;DHT22;27178;49.460;10.850;2023-07-29T00:58:10;23.30;91.50
41437;DHT22;27178;49.460;10.850;2023-07-29T01:00:38;22.00;91.10
41437;DHT22;27178;49.460;10.850;2023-07-29T01:03:07;22.00;91.20
41437;DHT22;27178;49.460;10.850;2023-07-29T01:05:48;23.30;91.50
41437;DHT22;27178;49.460;10.850;2023-07-29T01:08:27;23.60;91.60
41437;DHT22;27178;49.460;10.850;2023-07-29T01:11:03;22.60;91.20
41437;DHT22;27178;49.460;10.850;2023-07-29T01:13:42;21.90;90.90
41437;DHT22;27178;49.460;10.850;2023-07-29T01:16:15;22.00;91.00
41437;DHT22;27178;49.460;10.850;2023-07-29T01:18:47;21.90;91.10
41437;DHT22;27178;49.460;10.850;2023-07-29T01:21:17;23.30;91.60
41437;DHT22;27178;49.460;10.850;2023-07-29T01:23:46;22.50;91.40
41437;DHT22;27178;49.460;10.850;2023-07-29T01:26:14;21.80;91.10
41437;DHT22;27178;49.460;10.850;2023-07-29T01:28:43;22.30;91.20
41437;DHT22;27178;49.460;10.850;2023-07-29T01:31:27;23.30;91.60
41437;DHT22;27178;49.460;10.850;2023-07-29T01:34:04;21.80;91.10
41437;DHT22;27178;49.460;10.850;2023-07-29T01:36:34;22.70;91.40
41437;DHT22;27178;49.460;10.850;2023-07-29T01:39:09;21.70;91.30
41437;DHT22;27178;49.460;10.850;2023-07-29T01:41:38;22.80;91.60
41437;DHT22;27178;49.460;10.850;2023-07-29T01:44:07;21.70;91.30
41437;DHT22;27178;49.460;10.850;2023-07-29T01:46:35;23.10;91.70
41437;DHT22;27178;49.460;10.850;2023-07-29T01:49:04;22.60;91.70
41437;DHT22;27178;49.460;10.850;2023-07-29T01:51:33;23.30;91.80
41437;DHT22;27178;49.460;10.850;2023-07-29T01:54:02;23.00;91.70
41437;DHT22;27178;49.460;10.850;2023-07-29T01:56:31;21.70;91.30
41437;DHT22;27178;49.460;10.850;2023-07-29T01:59:00;21.60;91.20
41437;DHT22;27178;49.460;10.850;2023-07-29T02:01:29;21.60;91.30
41437;DHT22;27178;49.460;10.850;2023-07-29T02:03:58;21.60;91.40
41437;DHT22;27178;49.460;10.850;2023-07-29T02:06:26;21.70;91.30
41437;DHT22;27178;49.460;10.850;2023-07-29T02:08:56;22.60;91.60
41437;DHT22;27178;49.460;10.850;2023-07-29T02:11:24;21.50;91.40
41437;DHT22;27178;49.460;10.850;2023-07-29T02:13:56;21.60;91.40
41437;DHT22;27178;49.460;10.850;2023-07-29T02:16:25;21.80;91.50
41437;DHT22;27178;49.460;10.850;2023-07-29T02:18:53;21.50;91.40
41437;DHT22;27178;49.460;10.850;2023-07-29T02:21:22;21.50;91.50
41437;DHT22;27178;49.460;10.850;2023-07-29T02:23:51;21.50;91.50
41437;DHT22;27178;49.460;10.850;2023-07-29T02:26:20;21.50;91.50
41437;DHT22;27178;49.460;10.850;2023-07-29T02:28:48;21.70;91.60
41437;DHT22;27178;49.460;10.850;2023-07-29T02:31:20;21.50;91.50
41437;DHT22;27178;49.460;10.850;2023-07-29T02:33:49;21.40;91.50
41437;DHT22;27178;49.460;10.850;2023-07-29T02:36:17;22.50;91.90
41437;DHT22;27178;49.460;10.850;2023-07-29T02:38:46;22.20;91.80
41437;DHT22;27178;49.460;10.850;2023-07-29T02:41:14;22.50;91.90
41437;DHT22;27178;49.460;10.850;2023-07-29T02:43:43;21.50;91.70
41437;DHT22;27178;49.460;10.850;2023-07-29T02:46:16;21.50;91.70
41437;DHT22;27178;49.460;10.850;2023-07-29T02:48:45;21.40;91.60
41437;DHT22;27178;49.460;10.850;2023-07-29T02:51:14;21.40;91.40
41437;DHT22;27178;49.460;10.850;2023-07-29T02:53:42;21.40;91.40
41437;DHT22;27178;49.460;10.850;2023-07-29T02:56:10;21.40;91.40
41437;DHT22;27178;49.460;10.850;2023-07-29T02:58:39;21.40;91.40
41437;DHT22;27178;49.460;10.850;2023-07-29T03:01:07;21.40;91.40
41437;DHT22;27178;49.460;10.850;2023-07-29T03:03:37;23.10;92.00
41437;DHT22;27178;49.460;10.850;2023-07-29T03:06:07;21.80;91.60
41437;DHT22;27178;49.460;10.850;2023-07-29T03:08:36;23.00;92.10
41437;DHT22;27178;49.460;10.850;2023-07-29T03:11:09;21.40;91.60
41437;DHT22;27178;49.460;10.850;2023-07-29T03:13:37;21.30;91.40
41437;DHT22;27178;49.460;10.850;2023-07-29T03:16:06;21.40;91.50
41437;DHT22;27178;49.460;10.850;2023-07-29T03:18:34;23.30;92.10
41437;DHT22;27178;49.460;10.850;2023-07-29T03:21:04;21.30;91.70
41437;DHT22;27178;49.460;10.850;2023-07-29T03:23:33;21.30;91.60
41437;DHT22;27178;49.460;10.850;2023-07-29T03:26:02;21.30;91.60
41437;DHT22;27178;49.460;10.850;2023-07-29T03:28:39;22.70;92.20
41437;DHT22;27178;49.460;10.850;2023-07-29T03:31:07;21.30;91.70
41437;DHT22;27178;49.460;10.850;2023-07-29T03:33:36;21.30;91.70
41437;DHT22;27178;49.460;10.850;2023-07-29T03:36:05;21.30;91.80
41437;DHT22;27178;49.460;10.850;2023-07-29T03:38:33;21.40;91.80
41437;DHT22;27178;49.460;10.850;2023-07-29T03:41:02;21.30;91.80
41437;DHT22;27178;49.460;10.850;2023-07-29T03:43:32;21.90;92.00
41437;DHT22;27178;49.460;10.850;2023-07-29T03:46:01;22.90;92.20
41437;DHT22;27178;49.460;10.850;2023-07-29T03:48:29;21.30;91.80
41437;DHT22;27178;49.460;10.850;2023-07-29T03:50:58;22.50;92.20
41437;DHT22;27178;49.460;10.850;2023-07-29T03:53:27;21.30;91.90
41437;DHT22;27178;49.460;10.850;2023-07-29T03:55:55;22.20;92.10
41437;DHT22;27178;49.460;10.850;2023-07-29T03:58:24;21.90;92.00
41437;DHT22;27178;49.460;10.850;2023-07-29T04:00:52;21.30;91.90
41437;DHT22;27178;49.460;10.850;2023-07-29T04:03:20;21.30;91.90
41437;DHT22;27178;49.460;10.850;2023-07-29T04:05:48;21.30;91.90
41437;DHT22;27178;49.460;10.850;2023-07-29T04:08:16;21.20;91.80
41437;DHT22;27178;49.460;10.850;2023-07-29T04:10:46;21.40;91.90
41437;DHT22;27178;49.460;10.850;2023-07-29T04:13:14;21.20;92.20
41437;DHT22;27178;49.460;10.850;2023-07-29T04:15:42;22.80;92.40
41437;DHT22;27178;49.460;10.850;2023-07-29T04:18:11;21.20;91.80
41437;DHT22;27178;49.460;10.850;2023-07-29T04:20:39;21.30;92.00
41437;DHT22;27178;49.460;10.850;2023-07-29T04:23:08;21.30;91.90
41437;DHT22;27178;49.460;10.850;2023-07-29T04:25:36;21.60;91.90
41437;DHT22;27178;49.460;10.850;2023-07-29T04:28:05;22.70;92.40
41437;DHT22;27178;49.460;10.850;2023-07-29T04:30:34;21.90;92.10
41437;DHT22;27178;49.460;10.850;2023-07-29T04:33:02;21.80;92.10
41437;DHT22;27178;49.460;10.850;2023-07-29T04:35:30;21.30;91.90
41437;DHT22;27178;49.460;10.850;2023-07-29T04:37:58;21.70;92.10
41437;DHT22;27178;49.460;10.850;2023-07-29T04:40:27;21.40;92.00
41437;DHT22;27178;49.460;10.850;2023-07-29T04:42:55;22.90;92.50
41437;DHT22;27178;49.460;10.850;2023-07-29T04:45:27;21.30;91.90
41437;DHT22;27178;49.460;10.850;2023-07-29T04:47:56;21.30;91.80
41437;DHT22;27178;49.460;10.850;2023-07-29T04:50:24;22.20;92.20
41437;DHT22;27178;49.460;10.850;2023-07-29T04:52:53;21.40;92.00
41437;DHT22;27178;49.460;10.850;2023-07-29T04:55:21;21.40;92.50
41437;DHT22;27178;49.460;10.850;2023-07-29T04:57:49;21.70;92.20
41437;DHT22;27178;49.460;10.850;2023-07-29T05:00:17;21.50;92.20
41437;DHT22;27178;49.460;10.850;2023-07-29T05:02:47;21.50;92.10
41437;DHT22;27178;49.460;10.850;2023-07-29T05:05:15;21.50;92.10
41437;DHT22;27178;49.460;10.850;2023-07-29T05:07:44;21.80;92.20
41437;DHT22;27178;49.460;10.850;2023-07-29T05:10:12;21.60;92.00
41437;DHT22;27178;49.460;10.850;2023-07-29T05:12:40;21.60;91.90
41437;DHT22;27178;49.460;10.850;2023-07-29T05:15:09;21.60;91.90
41437;DHT22;27178;49.460;10.850;2023-07-29T05:17:37;21.60;91.90
41437;DHT22;27178;49.460;10.850;2023-07-29T05:20:08;22.60;92.20
41437;DHT22;27178;49.460;10.850;2023-07-29T05:22:37;21.70;91.80
41437;DHT22;27178;49.460;10.850;2023-07-29T05:25:06;21.70;91.80
41437;DHT22;27178;49.460;10.850;2023-07-29T05:27:34;21.70;91.80
41437;DHT22;27178;49.460;10.850;2023-07-29T05:30:03;22.80;92.20
41437;DHT22;27178;49.460;10.850;2023-07-29T05:32:31;21.70;91.80
41437;DHT22;27178;49.460;10.850;2023-07-29T05:34:59;21.70;91.80
41437;DHT22;27178;49.460;10.850;2023-07-29T05:37:29;22.90;92.10
41437;DHT22;27178;49.460;10.850;2023-07-29T05:39:57;22.50;91.90
41437;DHT22;27178;49.460;10.850;2023-07-29T05:42:25;22.50;91.90
41437;DHT22;27178;49.460;10.850;2023-07-29T05:44:53;22.40;91.90
41437;DHT22;27178;49.460;10.850;2023-07-29T05:47:21;21.90;91.70
41437;DHT22;27178;49.460;10.850;2023-07-29T05:49:49;21.80;91.80
41437;DHT22;27178;49.460;10.850;2023-07-29T05:52:18;21.80;91.80
41437;DHT22;27178;49.460;10.850;2023-07-29T05:54:47;22.70;92.10
41437;DHT22;27178;49.460;10.850;2023-07-29T05:57:15;21.80;91.70
41437;DHT22;27178;49.460;10.850;2023-07-29T05:59:43;21.80;91.80
41437;DHT22;27178;49.460;10.850;2023-07-29T06:02:11;21.90;91.80
41437;DHT22;27178;49.460;10.850;2023-07-29T06:04:40;21.80;91.80
41437;DHT22;27178;49.460;10.850;2023-07-29T06:07:08;23.40;92.20
41437;DHT22;27178;49.460;10.850;2023-07-29T06:09:36;21.80;91.60
41437;DHT22;27178;49.460;10.850;2023-07-29T06:12:06;22.80;91.90
41437;DHT22;27178;49.460;10.850;2023-07-29T06:14:35;21.80;91.60
41437;DHT22;27178;49.460;10.850;2023-07-29T06:17:03;22.00;91.70
41437;DHT22;27178;49.460;10.850;2023-07-29T06:19:34;21.80;91.70
41437;DHT22;27178;49.460;10.850;2023-07-29T06:22:02;21.80;91.70
41437;DHT22;27178;49.460;10.850;2023-07-29T06:24:31;21.90;91.80
41437;DHT22;27178;49.460;10.850;2023-07-29T06:26:59;21.80;91.80
41437;DHT22;27178;49.460;10.850;2023-07-29T06:29:29;21.80;91.80
41437;DHT22;27178;49.460;10.850;2023-07-29T06:31:58;22.20;91.90
41437;DHT22;27178;49.460;10.850;2023-07-29T06:34:27;22.60;92.00
41437;DHT22;27178;49.460;10.850;2023-07-29T06:36:55;22.50;92.00
41437;DHT22;27178;49.460;10.850;2023-07-29T06:39:23;23.00;92.20
41437;DHT22;27178;49.460;10.850;2023-07-29T06:41:52;22.60;92.10
41437;DHT22;27178;49.460;10.850;2023-07-29T06:44:20;21.90;91.90
41437;DHT22;27178;49.460;10.850;2023-07-29T06:46:51;23.00;92.30
41437;DHT22;27178;49.460;10.850;2023-07-29T06:49:20;21.80;91.90
41437;DHT22;27178;49.460;10.850;2023-07-29T06:51:48;21.90;92.20
41437;DHT22;27178;49.460;10.850;2023-07-29T06:54:16;21.80;92.20
41437;DHT22;27178;49.460;10.850;2023-07-29T06:56:44;23.70;92.80
41437;DHT22;27178;49.460;10.850;2023-07-29T06:59:13;21.80;92.20
41437;DHT22;27178;49.460;10.850;2023-07-29T07:01:41;21.80;92.30
41437;DHT22;27178;49.460;10.850;2023-07-29T07:04:10;21.80;92.30
41437;DHT22;27178;49.460;10.850;2023-07-29T07:06:38;21.70;92.30
41437;DHT22;27178;49.460;10.850;2023-07-29T07:09:06;21.70;92.30
41437;DHT22;27178;49.460;10.850;2023-07-29T07:11:34;21.70;92.30
41437;DHT22;27178;49.460;10.850;2023-07-29T07:14:02;22.40;92.50
41437;DHT22;27178;49.460;10.850;2023-07-29T07:16:30;21.70;92.40
41437;DHT22;27178;49.460;10.850;2023-07-29T07:18:58;22.20;93.00
41437;DHT22;27178;49.460;10.850;2023-07-29T07:21:28;23.40;93.10
41437;DHT22;27178;49.460;10.850;2023-07-29T07:23:56;21.70;92.70
41437;DHT22;27178;49.460;10.850;2023-07-29T07:26:24;21.70;92.70
41437;DHT22;27178;49.460;10.850;2023-07-29T07:28:52;22.70;93.20
41437;DHT22;27178;49.460;10.850;2023-07-29T07:31:21;21.80;92.90
41437;DHT22;27178;49.460;10.850;2023-07-29T07:33:50;21.80;92.90
41437;DHT22;27178;49.460;10.850;2023-07-29T07:36:18;22.70;93.10
41437;DHT22;27178;49.460;10.850;2023-07-29T07:38:47;21.80;92.90
41437;DHT22;27178;49.460;10.850;2023-07-29T07:41:15;23.30;93.30
41437;DHT22;27178;49.460;10.850;2023-07-29T07:43:44;21.80;92.80
41437;DHT22;27178;49.460;10.850;2023-07-29T07:46:12;21.80;92.80
41437;DHT22;27178;49.460;10.850;2023-07-29T07:48:40;21.80;92.90
41437;DHT22;27178;49.460;10.850;2023-07-29T07:51:12;21.80;92.80
41437;DHT22;27178;49.460;10.850;2023-07-29T07:53:40;21.80;92.80
41437;DHT22;27178;49.460;10.850;2023-07-29T07:56:10;22.70;93.10
41437;DHT22;27178;49.460;10.850;2023-07-29T07:58:38;22.90;93.30
41437;DHT22;27178;49.460;10.850;2023-07-29T08:01:08;22.00;94.00
41437;DHT22;27178;49.460;10.850;2023-07-29T08:03:36;22.10;94.20
41437;DHT22;27178;49.460;10.850;2023-07-29T08:06:05;22.70;94.10
41437;DHT22;27178;49.460;10.850;2023-07-29T08:08:36;21.50;93.70
41437;DHT22;27178;49.460;10.850;2023-07-29T08:11:05;22.60;93.80
41437;DHT22;27178;49.460;10.850;2023-07-29T08:13:34;21.50;93.30
41437;DHT22;27178;49.460;10.850;2023-07-29T08:16:02;21.50;92.90
41437;DHT22;27178;49.460;10.850;2023-07-29T08:18:30;21.40;93.00
41437;DHT22;27178;49.460;10.850;2023-07-29T08:20:59;22.60;93.30
41437;DHT22;27178;49.460;10.850;2023-07-29T08:23:30;22.70;93.30
41437;DHT22;27178;49.460;10.850;2023-07-29T08:26:00;22.60;93.20
41437;DHT22;27178;49.460;10.850;2023-07-29T08:28:30;22.10;93.10
41437;DHT22;27178;49.460;10.850;2023-07-29T08:31:00;21.30;93.10
41437;DHT22;27178;49.460;10.850;2023-07-29T08:33:30;21.60;93.10
41437;DHT22;27178;49.460;10.850;2023-07-29T08:36:00;21.30;93.00
41437;DHT22;27178;49.460;10.850;2023-07-29T08:38:28;23.10;93.50
41437;DHT22;27178;49.460;10.850;2023-07-29T08:41:04;21.30;93.20
41437;DHT22;27178;49.460;10.850;2023-07-29T08:43:32;21.20;93.00
41437;DHT22;27178;49.460;10.850;2023-07-29T08:46:02;22.50;93.60
41437;DHT22;27178;49.460;10.850;2023-07-29T08:48:39;22.30;93.60
41437;DHT22;27178;49.460;10.850;2023-07-29T08:51:09;22.70;94.00
41437;DHT22;27178;49.460;10.850;2023-07-29T08:53:38;21.20;93.80
41437;DHT22;27178;49.460;10.850;2023-07-29T08:56:07;21.20;93.80
41437;DHT22;27178;49.460;10.850;2023-07-29T08:58:35;21.10;93.80
41437;DHT22;27178;49.460;10.850;2023-07-29T09:01:05;21.20;94.00
41437;DHT22;27178;49.460;10.850;2023-07-29T09:03:34;21.90;93.90
41437;DHT22;27178;49.460;10.850;2023-07-29T09:06:03;22.20;93.80
41437;DHT22;27178;49.460;10.850;2023-07-29T09:08:32;21.60;93.70
41437;DHT22;27178;49.460;10.850;2023-07-29T09:11:01;21.20;93.70
41437;DHT22;27178;49.460;10.850;2023-07-29T09:13:29;20.70;93.30
41437;DHT22;27178;49.460;10.850;2023-07-29T09:15:58;21.70;93.70
41437;DHT22;27178;49.460;10.850;2023-07-29T09:18:27;21.40;93.40
41437;DHT22;27178;49.460;10.850;2023-07-29T09:20:59;21.20;93.50
41437;DHT22;27178;49.460;10.850;2023-07-29T09:23:27;21.20;93.70
41437;DHT22;27178;49.460;10.850;2023-07-29T09:26:01;21.80;93.70
41437;DHT22;27178;49.460;10.850;2023-07-29T09:28:33;22.00;93.80
41437;DHT22;27178;49.460;10.850;2023-07-29T09:31:01;22.20;94.00
41437;DHT22;27178;49.460;10.850;2023-07-29T09:33:34;21.70;94.20
41437;DHT22;27178;49.460;10.850;2023-07-29T09:36:08;21.70;94.50
41437;DHT22;27178;49.460;10.850;2023-07-29T09:38:38;22.50;95.00
41437;DHT22;27178;49.460;10.850;2023-07-29T09:41:06;21.30;94.60
41437;DHT22;27178;49.460;10.850;2023-07-29T09:43:35;22.60;95.20
41437;DHT22;27178;49.460;10.850;2023-07-29T09:46:04;23.80;95.70
41437;DHT22;27178;49.460;10.850;2023-07-29T09:48:37;21.40;94.90
41437;DHT22;27178;49.460;10.850;2023-07-29T09:51:12;21.40;94.90
41437;DHT22;27178;49.460;10.850;2023-07-29T09:53:42;22.50;94.70
41437;DHT22;27178;49.460;10.850;2023-07-29T09:56:14;21.50;94.40
41437;DHT22;27178;49.460;10.850;2023-07-29T09:58:43;21.50;94.40
41437;DHT22;27178;49.460;10.850;2023-07-29T10:01:13;22.00;94.40
41437;DHT22;27178;49.460;10.850;2023-07-29T10:03:44;21.70;94.00
41437;DHT22;27178;49.460;10.850;2023-07-29T10:06:14;21.90;94.10
41437;DHT22;27178;49.460;10.850;2023-07-29T10:08:43;21.90;94.80
41437;DHT22;27178;49.460;10.850;2023-07-29T10:11:11;22.10;94.50
41437;DHT22;27178;49.460;10.850;2023-07-29T10:13:40;22.00;94.60
41437;DHT22;27178;49.460;10.850;2023-07-29T10:16:15;22.10;94.80
41437;DHT22;27178;49.460;10.850;2023-07-29T10:18:46;22.20;94.50
41437;DHT22;27178;49.460;10.850;2023-07-29T10:21:15;23.10;94.40
41437;DHT22;27178;49.460;10.850;2023-07-29T10:23:47;22.20;93.90
41437;DHT22;27178;49.460;10.850;2023-07-29T10:26:20;23.50;93.80
41437;DHT22;27178;49.460;10.850;2023-07-29T10:28:48;22.30;93.30
41437;DHT22;27178;49.460;10.850;2023-07-29T10:31:20;22.30;93.90
41437;DHT22;27178;49.460;10.850;2023-07-29T10:33:52;23.00;94.20
41437;DHT22;27178;49.460;10.850;2023-07-29T10:36:20;22.30;93.70
41437;DHT22;27178;49.460;10.850;2023-07-29T10:38:49;22.90;93.80
41437;DHT22;27178;49.460;10.850;2023-07-29T10:41:17;22.40;93.40
41437;DHT22;27178;49.460;10.850;2023-07-29T10:43:46;22.40;93.60
41437;DHT22;27178;49.460;10.850;2023-07-29T10:46:17;23.90;94.30
41437;DHT22;27178;49.460;10.850;2023-07-29T10:48:54;22.50;93.70
41437;DHT22;27178;49.460;10.850;2023-07-29T10:51:26;23.60;94.00
41437;DHT22;27178;49.460;10.850;2023-07-29T10:53:57;22.50;93.80
41437;DHT22;27178;49.460;10.850;2023-07-29T10:56:28;22.60;93.70
41437;DHT22;27178;49.460;10.850;2023-07-29T10:58:58;23.50;94.00
41437;DHT22;27178;49.460;10.850;2023-07-29T11:01:28;24.10;93.90
41437;DHT22;27178;49.460;10.850;2023-07-29T11:04:25;22.80;93.10
41437;DHT22;27178;49.460;10.850;2023-07-29T11:07:21;22.70;91.80
41437;DHT22;27178;49.460;10.850;2023-07-29T11:10:00;22.70;92.80
41437;DHT22;27178;49.460;10.850;2023-07-29T11:12:44;23.40;93.00
41437;DHT22;27178;49.460;10.850;2023-07-29T11:15:17;22.80;92.50
41437;DHT22;27178;49.460;10.850;2023-07-29T11:17:47;24.40;94.00
41437;DHT22;27178;49.460;10.850;2023-07-29T11:20:18;23.00;93.60
41437;DHT22;27178;49.460;10.850;2023-07-29T11:22:46;23.60;93.80
41437;DHT22;27178;49.460;10.850;2023-07-29T11:25:16;23.20;93.30
41437;DHT22;27178;49.460;10.850;2023-07-29T11:27:45;24.80;93.80
41437;DHT22;27178;49.460;10.850;2023-07-29T11:30:15;23.60;93.30
41437;DHT22;27178;49.460;10.850;2023-07-29T11:32:44;24.20;93.30
41437;DHT22;27178;49.460;10.850;2023-07-29T11:35:14;23.30;92.60
41437;DHT22;27178;49.460;10.850;2023-07-29T11:37:44;23.80;92.70
41437;DHT22;27178;49.460;10.850;2023-07-29T11:40:14;23.50;92.50
41437;DHT22;27178;49.460;10.850;2023-07-29T11:42:44;23.40;92.10
41437;DHT22;27178;49.460;10.850;2023-07-29T11:45:13;25.00;92.50
41437;DHT22;27178;49.460;10.850;2023-07-29T11:47:44;23.60;92.10
41437;DHT22;27178;49.460;10.850;2023-07-29T11:50:13;23.50;92.10
41437;DHT22;27178;49.460;10.850;2023-07-29T11:52:45;23.60;92.00
41437;DHT22;27178;49.460;10.850;2023-07-29T11:55:15;23.60;92.10
41437;DHT22;27178;49.460;10.850;2023-07-29T11:57:48;23.60;92.30
41437;DHT22;27178;49.460;10.850;2023-07-29T12:00:18;23.70;91.70
41437;DHT22;27178;49.460;10.850;2023-07-29T12:02:49;23.70;91.40
41437;DHT22;27178;49.460;10.850;2023-07-29T12:05:20;24.30;91.40
41437;DHT22;27178;49.460;10.850;2023-07-29T12:07:50;24.20;91.00
41437;DHT22;27178;49.460;10.850;2023-07-29T12:10:18;24.00;90.70
41437;DHT22;27178;49.460;10.850;2023-07-29T12:12:55;24.30;90.50
41437;DHT22;27178;49.460;10.850;2023-07-29T12:15:24;24.90;90.90
41437;DHT22;27178;49.460;10.850;2023-07-29T12:17:54;24.10;90.80
41437;DHT22;27178;49.460;10.850;2023-07-29T12:20:24;24.50;90.50
41437;DHT22;27178;49.460;10.850;2023-07-29T12:22:56;24.60;89.80
41437;DHT22;27178;49.460;10.850;2023-07-29T12:25:28;24.90;89.80
41437;DHT22;27178;49.460;10.850;2023-07-29T12:27:56;24.90;89.20
41437;DHT22;27178;49.460;10.850;2023-07-29T12:30:25;24.90;89.20
41437;DHT22;27178;49.460;10.850;2023-07-29T12:32:53;25.20;88.60
41437;DHT22;27178;49.460;10.850;2023-07-29T12:35:21;25.30;87.50
41437;DHT22;27178;49.460;10.850;2023-07-29T12:37:59;25.40;85.50
41437;DHT22;27178;49.460;10.850;2023-07-29T12:40:28;25.00;83.90
41437;DHT22;27178;49.460;10.850;2023-07-29T12:42:57;26.90;86.10
41437;DHT22;27178;49.460;10.850;2023-07-29T12:45:25;25.70;85.80
41437;DHT22;27178;49.460;10.850;2023-07-29T12:47:55;27.20;87.20
41437;DHT22;27178;49.460;10.850;2023-07-29T12:50:23;26.40;86.10
41437;DHT22;27178;49.460;10.850;2023-07-29T12:52:52;25.70;85.10
41437;DHT22;27178;49.460;10.850;2023-07-29T12:55:22;25.70;83.30
41437;DHT22;27178;49.460;10.850;2023-07-29T12:57:50;25.80;83.20
41437;DHT22;27178;49.460;10.850;2023-07-29T13:00:18;25.80;83.50
41437;DHT22;27178;49.460;10.850;2023-07-29T13:02:47;27.10;84.10
41437;DHT22;27178;49.460;10.850;2023-07-29T13:05:15;26.50;82.90
41437;DHT22;27178;49.460;10.850;2023-07-29T13:07:43;25.90;82.80
41437;DHT22;27178;49.460;10.850;2023-07-29T13:10:12;26.20;83.10
41437;DHT22;27178;49.460;10.850;2023-07-29T13:12:42;26.10;82.70
41437;DHT22;27178;49.460;10.850;2023-07-29T13:15:10;26.80;81.60
41437;DHT22;27178;49.460;10.850;2023-07-29T13:17:38;26.30;81.00
41437;DHT22;27178;49.460;10.850;2023-07-29T13:20:07;26.30;80.80
41437;DHT22;27178;49.460;10.850;2023-07-29T13:22:35;26.30;81.10
41437;DHT22;27178;49.460;10.850;2023-07-29T13:25:04;26.60;81.30
41437;DHT22;27178;49.460;10.850;2023-07-29T13:27:32;26.50;81.00
41437;DHT22;27178;49.460;10.850;2023-07-29T13:30:02;26.60;79.10
41437;DHT22;27178;49.460;10.850;2023-07-29T13:32:31;26.70;80.30
41437;DHT22;27178;49.460;10.850;2023-07-29T13:34:59;27.30;81.40
41437;DHT22;27178;49.460;10.850;2023-07-29T13:37:27;27.30;81.00
41437;DHT22;27178;49.460;10.850;2023-07-29T13:39:55;27.10;79.80
41437;DHT22;27178;49.460;10.850;2023-07-29T13:42:24;27.30;79.50
41437;DHT22;27178;49.460;10.850;2023-07-29T13:44:51;27.90;79.80
41437;DHT22;27178;49.460;10.850;2023-07-29T13:47:21;27.50;78.20
41437;DHT22;27178;49.460;10.850;2023-07-29T13:49:49;28.40;78.50
41437;DHT22;27178;49.460;10.850;2023-07-29T13:52:17;28.80;79.20
41437;DHT22;27178;49.460;10.850;2023-07-29T13:54:45;27.70;77.80
41437;DHT22;27178;49.460;10.850;2023-07-29T13:57:14;29.00;76.70
41437;DHT22;27178;49.460;10.850;2023-07-29T13:59:42;28.80;75.90
41437;DHT22;27178;49.460;10.850;2023-07-29T14:02:10;29.20;74.70
41437;DHT22;27178;49.460;10.850;2023-07-29T14:04:40;27.70;73.70
41437;DHT22;27178;49.460;10.850;2023-07-29T14:07:09;27.80;73.10
41437;DHT22;27178;49.460;10.850;2023-07-29T14:09:37;28.20;73.60
41437;DHT22;27178;49.460;10.850;2023-07-29T14:12:07;28.10;74.30
41437;DHT22;27178;49.460;10.850;2023-07-29T14:14:38;27.60;74.00
41437;DHT22;27178;49.460;10.850;2023-07-29T14:17:06;27.70;74.90
41437;DHT22;27178;49.460;10.850;2023-07-29T14:19:35;28.60;75.00
41437;DHT22;27178;49.460;10.850;2023-07-29T14:22:05;28.70;76.10
41437;DHT22;27178;49.460;10.850;2023-07-29T14:24:33;28.70;75.10
41437;DHT22;27178;49.460;10.850;2023-07-29T14:27:02;28.30;75.20
41437;DHT22;27178;49.460;10.850;2023-07-29T14:29:31;28.40;72.50
41437;DHT22;27178;49.460;10.850;2023-07-29T14:31:59;28.50;72.80
41437;DHT22;27178;49.460;10.850;2023-07-29T14:34:27;29.80;71.90
41437;DHT22;27178;49.460;10.850;2023-07-29T14:36:55;29.50;72.50
41437;DHT22;27178;49.460;10.850;2023-07-29T14:39:25;29.70;71.50
41437;DHT22;27178;49.460;10.850;2023-07-29T14:41:54;28.80;69.80
41437;DHT22;27178;49.460;10.850;2023-07-29T14:44:21;29.10;71.50
41437;DHT22;27178;49.460;10.850;2023-07-29T14:46:50;29.10;71.30
41437;DHT22;27178;49.460;10.850;2023-07-29T14:49:18;29.20;71.50
41437;DHT22;27178;49.460;10.850;2023-07-29T14:51:46;29.30;70.30
41437;DHT22;27178;49.460;10.850;2023-07-29T14:54:14;29.40;69.40
41437;DHT22;27178;49.460;10.850;2023-07-29T14:56:44;30.00;68.70
41437;DHT22;27178;49.460;10.850;2023-07-29T14:59:12;29.60;67.30
41437;DHT22;27178;49.460;10.850;2023-07-29T15:01:40;29.60;68.40
41437;DHT22;27178;49.460;10.850;2023-07-29T15:04:08;29.60;68.30
41437;DHT22;27178;49.460;10.850;2023-07-29T15:06:37;29.70;68.00
41437;DHT22;27178;49.460;10.850;2023-07-29T15:09:06;29.70;67.40
41437;DHT22;27178;49.460;10.850;2023-07-29T15:11:34;29.80;67.00
41437;DHT22;27178;49.460;10.850;2023-07-29T15:14:04;29.80;66.80
41437;DHT22;27178;49.460;10.850;2023-07-29T15:16:32;29.90;66.70
41437;DHT22;27178;49.460;10.850;2023-07-29T15:19:03;30.00;67.10
41437;DHT22;27178;49.460;10.850;2023-07-29T15:21:31;30.10;67.00
41437;DHT22;27178;49.460;10.850;2023-07-29T15:24:01;30.30;66.10
41437;DHT22;27178;49.460;10.850;2023-07-29T15:26:29;30.20;65.70
41437;DHT22;27178;49.460;10.850;2023-07-29T15:29:00;30.20;65.00